Time;durP1;ratioP1;P1;durP2;ratioP2;P2;SDS_P1;SDS_P2;PMS_P1;PMS_P2;Temp;Humidity;BMP_temperature;BMP_pressure;BME280_temperature;BME280_humidity;BME280_pressure;Samples;Min_cycle;Max_cycle;Signal;HPM_P1;HPM_P2
2022/03/28 00:01:09;;;;;;;46.88;14.25;;;;;;;10.37;50.99;102043.16;4956062;29;20031;-80
2022/03/28 00:03:34;;;;;;;26.67;14.30;;;;;;;10.25;50.42;102043.88;4955994;29;20126;-79
2022/03/28 00:06:00;;;;;;;34.05;12.55;;;;;;;10.25;50.05;102043.88;4956537;29;20038;-79
2022/03/28 00:08:25;;;;;;;37.97;12.27;;;;;;;10.16;49.72;102041.72;4956030;29;20489;-81
2022/03/28 00:10:51;;;;;;;38.95;12.15;;;;;;;10.18;48.63;102042.53;4956257;29;20035;-80
2022/03/28 00:13:16;;;;;;;41.55;11.35;;;;;;;9.99;48.68;102048.03;4955964;29;20027;-81
2022/03/28 00:15:42;;;;;;;28.38;10.98;;;;;;;9.98;48.15;102035.53;4955500;29;20090;-80
2022/03/28 00:18:08;;;;;;;34.53;9.90;;;;;;;10.07;47.23;102047.59;4965854;29;20031;-81
2022/03/28 00:20:34;;;;;;;23.17;10.73;;;;;;;10.05;46.52;102041.44;4958245;29;20031;-80
2022/03/28 00:23:00;;;;;;;39.15;11.82;;;;;;;10.02;44.93;102044.31;4955746;29;20559;-80
2022/03/28 00:25:25;;;;;;;27.25;11.00;;;;;;;9.96;44.71;102041.97;4955617;29;20114;-79
2022/03/28 00:27:50;;;;;;;46.50;13.82;;;;;;;9.92;43.80;102040.38;4947322;29;20075;-80
2022/03/28 00:30:16;;;;;;;40.35;13.70;;;;;;;9.73;43.41;102032.47;4955065;28;20030;-80
2022/03/28 00:32:41;;;;;;;31.55;11.52;;;;;;;9.71;42.39;102047.84;4954665;29;20292;-79
2022/03/28 00:35:07;;;;;;;43.05;12.65;;;;;;;9.66;41.98;102049.91;4955294;29;20413;-80
2022/03/28 00:37:33;;;;;;;45.45;12.52;;;;;;;9.51;41.57;102031.97;4955255;29;20417;-81
2022/03/28 00:39:58;;;;;;;39.38;12.85;;;;;;;9.47;41.31;102023.19;4938385;29;20023;-81
2022/03/28 00:42:24;;;;;;;56.42;14.98;;;;;;;9.56;40.58;102043.31;4955239;29;20026;-81
2022/03/28 00:44:49;;;;;;;36.47;14.90;;;;;;;9.47;40.43;102047.38;4961097;29;20023;-79
2022/03/28 00:47:15;;;;;;;41.55;16.52;;;;;;;9.43;40.77;102055.66;4962461;29;20035;-80
2022/03/28 00:49:40;;;;;;;46.30;15.75;;;;;;;9.29;40.95;102053.72;4956270;29;20031;-79
2022/03/28 00:52:07;;;;;;;39.37;14.43;;;;;;;9.22;40.56;102044.25;4960244;29;20050;-80
2022/03/28 00:54:32;;;;;;;37.45;13.40;;;;;;;9.31;40.31;102054.50;4954966;29;20050;-80
2022/03/28 00:56:58;;;;;;;30.77;11.20;;;;;;;9.34;39.70;102046.28;4955469;29;20106;-79
2022/03/28 00:59:23;;;;;;;39.00;12.18;;;;;;;9.27;40.09;102040.38;4954918;29;20030;-80
2022/03/28 01:01:49;;;;;;;48.10;12.55;;;;;;;9.35;40.22;102045.34;4937436;29;20031;-79
2022/03/28 01:04:15;;;;;;;42.17;12.45;;;;;;;9.47;40.53;102060.78;4954938;29;20498;-79
2022/03/28 01:06:40;;;;;;;49.72;13.43;;;;;;;9.47;40.20;102057.22;4954998;29;20031;-80
2022/03/28 01:09:06;;;;;;;27.85;11.20;;;;;;;9.34;40.41;102037.34;4954728;29;20126;-79
2022/03/28 01:11:34;;;;;;;39.72;9.82;;;;;;;9.35;40.22;102053.41;4937463;29;20053;-80
2022/03/28 01:14:00;;;;;;;39.60;13.45;;;;;;;9.24;40.49;102050.41;4954220;29;20039;-81
2022/03/28 01:16:30;;;;;;;28.50;10.15;;;;;;;9.30;40.52;102055.44;4937529;29;20027;-81
2022/03/28 01:18:55;;;;;;;30.05;9.00;;;;;;;9.32;40.50;102058.06;4954096;29;20123;-80
2022/03/28 01:21:21;;;;;;;36.30;9.00;;;;;;;9.16;40.27;102042.78;4953862;29;20081;-80
2022/03/28 01:23:46;;;;;;;38.40;8.48;;;;;;;9.18;40.18;102058.78;4954108;29;20024;-79
2022/03/28 01:26:13;;;;;;;27.75;8.90;;;;;;;9.13;40.96;102055.47;4954775;29;20034;-80
2022/03/28 01:28:39;;;;;;;41.90;9.25;;;;;;;9.06;40.62;102065.66;4954185;29;20114;-79
2022/03/28 01:31:04;;;;;;;38.50;8.70;;;;;;;8.96;40.69;102063.56;4954202;29;20039;-80
2022/03/28 01:33:30;;;;;;;30.95;8.20;;;;;;;8.93;40.57;102074.44;4954594;29;20024;-79
2022/03/28 01:35:56;;;;;;;42.45;8.90;;;;;;;8.77;40.34;102059.09;4957472;29;20152;-78
2022/03/28 01:38:21;;;;;;;27.08;8.63;;;;;;;8.72;40.24;102055.78;4961898;29;20047;-81
2022/03/28 01:40:49;;;;;;;31.50;8.43;;;;;;;8.70;41.02;102057.69;4958437;29;20024;-80
2022/03/28 01:43:16;;;;;;;44.17;8.73;;;;;;;8.67;40.52;102056.97;4957053;28;20020;-82
2022/03/28 01:45:42;;;;;;;35.92;9.35;;;;;;;8.60;40.22;102050.19;4958413;29;20019;-79
2022/03/28 01:48:08;;;;;;;25.67;8.23;;;;;;;8.65;40.79;102062.41;4958260;29;20894;-79
2022/03/28 01:50:34;;;;;;;22.35;7.28;;;;;;;8.50;40.45;102041.72;4958002;29;20023;-81
2022/03/28 01:53:00;;;;;;;31.55;7.38;;;;;;;8.50;40.41;102055.13;4958428;29;20405;-80
2022/03/28 01:55:26;;;;;;;30.48;8.98;;;;;;;8.43;40.28;102064.44;4963442;29;20520;-81
2022/03/28 01:57:52;;;;;;;28.25;8.05;;;;;;;8.41;41.01;102063.63;4961771;29;20023;-78
2022/03/28 02:00:20;;;;;;;24.35;7.07;;;;;;;8.49;40.26;102064.16;4957993;29;20027;-78
2022/03/28 02:02:47;;;;;;;40.70;8.25;;;;;;;8.50;40.83;102055.13;4958054;29;20034;-79
2022/03/28 02:05:14;;;;;;;41.72;8.02;;;;;;;8.67;40.70;102063.22;4957876;29;20441;-79
2022/03/28 02:07:41;;;;;;;42.33;7.55;;;;;;;8.74;40.64;102059.25;4957967;29;20023;-79
2022/03/28 02:10:08;;;;;;;31.52;8.13;;;;;;;8.66;41.39;102029.28;4958335;29;20105;-80
2022/03/28 02:12:35;;;;;;;27.77;8.77;;;;;;;8.81;41.36;102058.97;4958601;29;20530;-79
2022/03/28 02:15:02;;;;;;;35.08;7.70;;;;;;;8.81;41.57;102049.09;4941625;29;20031;-80
2022/03/28 02:17:27;;;;;;;28.88;7.82;;;;;;;8.80;41.56;102052.75;4967201;29;20042;-78
2022/03/28 02:19:53;;;;;;;24.15;7.45;;;;;;;8.87;41.99;102043.41;4965919;29;20027;-80
2022/03/28 02:22:18;;;;;;;50.05;7.68;;;;;;;8.92;41.79;102061.97;4964893;29;20023;-81
2022/03/28 02:24:44;;;;;;;28.58;8.25;;;;;;;8.83;42.50;102057.06;4958322;29;20020;-80
2022/03/28 02:27:09;;;;;;;24.70;7.88;;;;;;;8.92;42.72;102061.97;4940512;29;20051;-78
2022/03/28 02:29:35;;;;;;;42.47;9.40;;;;;;;9.04;42.69;102054.16;4958058;29;20054;-79
2022/03/28 02:32:01;;;;;;;25.00;7.50;;;;;;;9.08;43.22;102054.88;4957771;29;20051;-79
2022/03/28 02:34:27;;;;;;;43.42;8.73;;;;;;;9.09;42.99;102056.56;4940833;29;20027;-81
2022/03/28 02:36:52;;;;;;;37.45;8.45;;;;;;;9.20;43.48;102057.75;4957829;29;20069;-81
2022/03/28 02:39:18;;;;;;;26.55;8.98;;;;;;;9.25;43.14;102057.50;4961525;29;20512;-81
2022/03/28 02:41:43;;;;;;;27.92;7.60;;;;;;;9.27;43.13;102052.91;4971702;29;20038;-80
2022/03/28 02:44:09;;;;;;;51.38;9.95;;;;;;;9.26;43.17;102051.22;4940530;29;20026;-80
2022/03/28 02:46:36;;;;;;;20.85;8.00;;;;;;;9.28;43.38;102049.28;4956639;29;20457;-79
2022/03/28 02:49:01;;;;;;;24.48;7.15;;;;;;;9.37;43.06;102058.66;4957072;29;20452;-80
2022/03/28 02:51:27;;;;;;;29.85;7.32;;;;;;;9.42;42.92;102057.47;4939956;29;20053;-81
2022/03/28 02:53:52;;;;;;;30.75;8.20;;;;;;;9.43;43.44;102061.03;4956095;28;20023;-79
2022/03/28 02:56:18;;;;;;;25.40;7.35;;;;;;;9.52;43.23;102069.47;4956615;29;20030;-80
2022/03/28 02:58:43;;;;;;;47.55;9.75;;;;;;;9.46;43.56;102051.00;4956613;29;20106;-80
2022/03/28 03:01:09;;;;;;;30.50;9.43;;;;;;;9.60;43.37;102069.91;4956386;29;20035;-80
2022/03/28 03:03:34;;;;;;;35.63;8.55;;;;;;;9.50;43.67;102049.88;4956732;29;20102;-80
2022/03/28 03:06:00;;;;;;;42.33;9.73;;;;;;;9.55;43.81;102074.66;4956257;29;20031;-81
2022/03/28 03:08:25;;;;;;;30.25;9.82;;;;;;;9.54;43.75;102069.38;4956787;29;20034;-81
2022/03/28 03:10:51;;;;;;;30.98;9.35;;;;;;;9.53;43.55;102064.97;4957040;29;20027;-80
2022/03/28 03:13:16;;;;;;;42.38;8.85;;;;;;;9.55;43.65;102058.53;4956779;29;20031;-82
2022/03/28 03:15:41;;;;;;;33.60;9.45;;;;;;;9.55;43.68;102057.69;4953882;29;20495;-81
2022/03/28 03:18:07;;;;;;;40.40;9.27;;;;;;;9.44;43.95;102058.28;4951911;29;20122;-80
2022/03/28 03:20:33;;;;;;;36.42;9.27;;;;;;;9.46;43.66;102069.78;4939715;29;20034;-80
2022/03/28 03:23:00;;;;;;;44.55;8.75;;;;;;;9.47;43.59;102071.53;4956928;29;20106;-80
2022/03/28 03:25:25;;;;;;;38.33;8.85;;;;;;;9.46;43.87;102063.53;4957167;29;20047;-81
2022/03/28 03:27:51;;;;;;;32.60;8.52;;;;;;;9.45;43.72;102061.84;4956173;29;20051;-80
2022/03/28 03:30:18;;;;;;;50.75;9.98;;;;;;;9.40;43.77;102064.75;4956287;29;20042;-80
2022/03/28 03:32:45;;;;;;;40.67;9.52;;;;;;;9.34;43.73;102072.25;4962671;29;20023;-88
2022/03/28 03:35:11;;;;;;;40.60;10.38;;;;;;;9.39;44.10;102086.31;4978867;29;20046;-86
2022/03/28 03:37:41;;;;;;;38.50;9.88;;;;;;;9.36;44.50;102081.13;4951708;29;20118;-93
2022/03/28 03:40:07;;;;;;;32.67;9.60;;;;;;;9.39;44.62;102081.81;4942530;29;20118;-91
2022/03/28 03:42:33;;;;;;;46.30;12.90;;;;;;;9.35;45.31;102093.66;4943433;29;20113;-92
2022/03/28 03:45:00;;;;;;;40.83;11.73;;;;;;;9.09;46.40;102056.56;4948464;29;20027;-92
2022/03/28 03:47:25;;;;;;;53.22;13.90;;;;;;;8.85;45.32;102029.22;4949454;29;20051;-90
2022/03/28 03:49:51;;;;;;;39.53;12.23;;;;;;;9.03;45.02;102064.94;4962889;28;20031;-91
2022/03/28 03:52:16;;;;;;;45.20;13.13;;;;;;;9.25;45.46;102092.41;4960928;28;20027;-91
2022/03/28 03:54:42;;;;;;;47.33;14.63;;;;;;;9.06;45.49;102054.94;4961303;29;20027;-90
2022/03/28 03:57:08;;;;;;;62.63;16.33;;;;;;;9.08;46.18;102074.50;4967007;29;20073;-92
2022/03/28 03:59:34;;;;;;;46.03;14.95;;;;;;;9.32;46.69;102095.66;4958712;29;20054;-85
2022/03/28 04:01:59;;;;;;;44.67;17.23;;;;;;;9.43;46.53;102107.56;4956294;29;20031;-82
2022/03/28 04:04:25;;;;;;;72.47;17.77;;;;;;;9.41;46.63;102109.47;4955901;29;20082;-82
2022/03/28 04:06:51;;;;;;;51.20;15.25;;;;;;;9.23;47.12;102091.63;4956479;28;20094;-80
2022/03/28 04:09:16;;;;;;;55.88;16.02;;;;;;;9.35;47.10;102099.03;4955736;29;20404;-80
2022/03/28 04:11:42;;;;;;;62.80;23.10;;;;;;;9.40;47.32;102105.03;4963740;29;20042;-82
2022/03/28 04:14:07;;;;;;;82.38;23.08;;;;;;;9.34;47.11;102099.97;4957395;29;20038;-83
2022/03/28 04:16:34;;;;;;;82.68;21.70;;;;;;;9.39;46.52;102111.34;4941650;29;20047;-81
2022/03/28 04:19:01;;;;;;;96.78;27.02;;;;;;;9.30;46.63;102106.44;4968602;29;20066;-87
2022/03/28 04:21:27;;;;;;;98.63;30.65;;;;;;;9.06;47.47;102091.63;4946829;29;20073;-88
2022/03/28 04:23:52;;;;;;;125.63;37.92;;;;;;;9.11;47.48;102101.16;4960282;29;20031;-87
2022/03/28 04:26:20;;;;;;;97.63;26.80;;;;;;;9.04;46.89;102082.81;4959015;29;20074;-87
2022/03/28 04:28:45;;;;;;;81.07;23.17;;;;;;;8.92;46.56;102059.28;4959118;29;20047;-87
2022/03/28 04:31:11;;;;;;;73.88;23.15;;;;;;;8.84;46.68;102037.34;4940384;29;20485;-88
2022/03/28 04:33:39;;;;;;;75.80;21.48;;;;;;;9.20;46.46;102094.47;4961825;29;20217;-87
2022/03/28 04:36:07;;;;;;;66.85;21.15;;;;;;;9.29;46.67;102104.75;4958056;29;20046;-88
2022/03/28 04:38:34;;;;;;;92.35;18.67;;;;;;;9.34;45.75;102104.47;4956428;29;20039;-88
2022/03/28 04:41:00;;;;;;;121.93;23.48;;;;;;;9.30;45.95;102098.41;4956097;29;20031;-88
2022/03/28 04:43:25;;;;;;;92.18;25.88;;;;;;;9.32;45.58;102109.94;4961977;29;20042;-86
2022/03/28 04:45:52;;;;;;;104.18;25.63;;;;;;;9.17;46.13;102090.13;4961390;29;20537;-88
2022/03/28 04:48:18;;;;;;;116.97;24.33;;;;;;;9.24;46.07;102093.34;4956682;29;20441;-88
2022/03/28 04:50:46;;;;;;;105.47;22.85;;;;;;;9.36;46.28;102106.13;4956723;29;20337;-87
2022/03/28 04:53:12;;;;;;;104.25;21.52;;;;;;;9.37;46.35;102091.75;4939393;29;20058;-87
2022/03/28 04:55:38;;;;;;;130.05;26.25;;;;;;;9.49;46.28;102107.22;4939090;29;20043;-88
2022/03/28 04:58:03;;;;;;;89.85;21.63;;;;;;;9.46;46.89;102107.38;4923200;29;20122;-89
2022/03/28 05:00:29;;;;;;;87.68;20.02;;;;;;;9.23;46.74;102059.41;4937930;29;20065;-88
2022/03/28 05:02:54;;;;;;;82.18;18.45;;;;;;;9.56;46.20;102108.63;4958254;29;20034;-87
2022/03/28 05:05:20;;;;;;;80.60;21.02;;;;;;;9.26;46.80;102051.22;4941431;29;20043;-88
2022/03/28 05:07:45;;;;;;;66.30;20.23;;;;;;;9.40;47.15;102105.03;4925948;29;20039;-88
2022/03/28 05:10:11;;;;;;;76.50;24.08;;;;;;;9.49;47.00;102112.59;4958823;29;20110;-88
2022/03/28 05:12:37;;;;;;;71.70;20.52;;;;;;;9.39;47.24;102079.13;4941029;29;20085;-87
2022/03/28 05:15:05;;;;;;;64.10;21.10;;;;;;;9.56;47.39;102108.63;4968434;29;20031;-87
2022/03/28 05:17:33;;;;;;;108.03;24.42;;;;;;;9.71;47.62;102118.56;4955583;28;20038;-88
2022/03/28 05:20:00;;;;;;;123.30;27.88;;;;;;;9.74;47.61;102107.66;4958664;29;20024;-86
2022/03/28 05:22:26;;;;;;;75.63;20.75;;;;;;;9.85;47.09;102115.09;4949216;29;20042;-87
2022/03/28 05:24:53;;;;;;;81.22;22.77;;;;;;;9.91;47.26;102125.53;4966008;29;20038;-87
2022/03/28 05:27:19;;;;;;;84.35;24.33;;;;;;;9.75;47.38;102077.13;4966242;29;20050;-86
2022/03/28 05:29:45;;;;;;;78.97;25.58;;;;;;;9.94;47.17;102089.56;4958705;29;20110;-88
2022/03/28 05:32:11;;;;;;;70.45;25.75;;;;;;;10.11;47.21;102101.09;4939330;29;20386;-89
2022/03/28 05:34:37;;;;;;;87.32;26.25;;;;;;;10.34;47.23;102124.03;4939191;29;20478;-88
2022/03/28 05:37:11;;;;;;;80.80;24.05;;;;;;;10.49;47.17;102125.84;4956431;29;20037;-86
2022/03/28 05:39:37;;;;;;;99.00;26.58;;;;;;;10.57;47.03;102117.34;4923651;29;20039;-88
2022/03/28 05:42:04;;;;;;;103.85;27.38;;;;;;;10.68;47.22;102118.47;4939026;29;20110;-88
2022/03/28 05:44:30;;;;;;;86.15;29.75;;;;;;;10.68;47.68;102123.84;4956236;29;20027;-88
2022/03/28 05:46:56;;;;;;;85.38;27.83;;;;;;;10.72;48.06;102117.34;4956757;29;20118;-88
2022/03/28 05:49:24;;;;;;;121.00;30.92;;;;;;;10.64;48.81;102114.19;4956029;29;20118;-87
2022/03/28 05:51:52;;;;;;;80.82;28.67;;;;;;;10.63;48.83;102115.19;4939034;29;20027;-88
2022/03/28 05:54:19;;;;;;;109.00;36.10;;;;;;;10.62;49.30;102116.13;4958488;29;20035;-87
2022/03/28 05:56:46;;;;;;;79.30;28.30;;;;;;;10.68;49.78;102117.59;4956289;29;20055;-88
2022/03/28 05:59:11;;;;;;;63.58;19.08;;;;;;;10.71;49.07;102110.22;4923259;29;20039;-87
2022/03/28 06:01:37;;;;;;;72.60;18.63;;;;;;;10.85;49.22;102114.78;4939104;29;20046;-87
2022/03/28 06:04:04;;;;;;;53.78;15.57;;;;;;;10.81;48.63;102097.09;4959953;29;20019;-87
2022/03/28 06:06:34;;;;;;;63.22;15.90;;;;;;;10.90;48.85;102110.88;4955668;29;20034;-87
2022/03/28 06:09:00;;;;;;;55.50;12.38;;;;;;;10.97;48.04;102114.06;4955631;29;20035;-87
2022/03/28 06:11:27;;;;;;;49.25;12.68;;;;;;;11.12;48.03;102106.91;4955600;29;20090;-86
2022/03/28 06:13:59;;;;;;;39.95;11.73;;;;;;;10.85;48.30;102072.59;4956859;29;20031;-87
2022/03/28 06:16:25;;;;;;;52.83;13.02;;;;;;;10.92;48.39;102063.19;4949652;29;20412;-86
2022/03/28 06:18:51;;;;;;;48.10;13.80;;;;;;;11.29;48.15;102112.13;4958256;29;20461;-87
2022/03/28 06:21:20;;;;;;;36.88;12.65;;;;;;;11.03;48.14;102089.47;4954955;29;20066;-88
2022/03/28 06:23:45;;;;;;;43.53;12.25;;;;;;;11.34;48.38;102118.13;4958595;29;20031;-88
2022/03/28 06:26:11;;;;;;;36.25;12.10;;;;;;;11.21;48.11;102106.34;4972843;29;20143;-86
2022/03/28 06:28:40;;;;;;;35.17;11.88;;;;;;;11.37;48.06;102099.06;4958241;28;20138;-86
2022/03/28 06:31:06;;;;;;;36.88;10.90;;;;;;;11.55;47.96;102122.19;4942480;29;20420;-88
2022/03/28 06:33:32;;;;;;;54.55;12.95;;;;;;;11.50;47.69;102083.84;4958776;29;20470;-86
2022/03/28 06:35:58;;;;;;;41.50;10.98;;;;;;;11.66;46.98;102106.22;4959211;29;20094;-87
2022/03/28 06:38:27;;;;;;;31.77;11.63;;;;;;;11.68;46.67;102123.13;4941366;29;20039;-86
2022/03/28 06:40:52;;;;;;;53.75;16.20;;;;;;;11.64;46.75;102105.44;4959301;29;20496;-86
2022/03/28 06:43:18;;;;;;;46.50;10.70;;;;;;;11.79;46.69;102123.38;4958444;29;20115;-86
2022/03/28 06:45:44;;;;;;;50.05;10.93;;;;;;;11.74;46.54;102122.78;4959344;29;20023;-87
2022/03/28 06:48:09;;;;;;;31.45;8.73;;;;;;;11.72;46.01;102089.69;4942638;29;20027;-87
2022/03/28 06:50:35;;;;;;;27.15;9.07;;;;;;;11.98;45.48;102128.50;4973193;29;20031;-87
2022/03/28 06:53:02;;;;;;;37.53;8.15;;;;;;;12.04;45.54;102130.78;4952146;29;20044;-87
2022/03/28 06:55:28;;;;;;;42.45;7.72;;;;;;;11.97;44.50;102103.34;4966190;29;20039;-84
2022/03/28 06:57:54;;;;;;;27.27;8.82;;;;;;;11.99;44.77;102106.81;4965229;29;20098;-84
2022/03/28 07:00:19;;;;;;;37.95;7.85;;;;;;;11.95;44.64;102094.50;4955659;29;20023;-86
2022/03/28 07:02:46;;;;;;;35.45;9.00;;;;;;;11.90;43.43;102066.94;4954570;29;20119;-88
2022/03/28 07:05:11;;;;;;;29.25;7.50;;;;;;;11.98;43.26;102072.72;4959361;29;20039;-86
2022/03/28 07:07:47;;;;;;;31.90;9.10;;;;;;;12.14;44.02;102098.72;4959527;29;20125;-87
2022/03/28 07:10:16;;;;;;;53.15;9.60;;;;;;;12.34;44.47;102117.16;4959349;29;20038;-87
2022/03/28 07:12:41;;;;;;;39.08;9.57;;;;;;;12.36;43.69;102109.81;4959192;29;20050;-88
2022/03/28 07:15:09;;;;;;;29.75;7.47;;;;;;;12.33;42.63;102093.84;4943763;29;20122;-88
2022/03/28 07:18:07;;;;;;;54.13;11.02;;;;;;;12.61;43.55;102136.06;4944924;29;20458;-88
2022/03/28 07:20:33;;;;;;;37.08;6.30;;;;;;;12.69;42.85;102129.19;4940505;29;20043;-84
2022/03/28 07:22:59;;;;;;;37.00;7.18;;;;;;;12.72;42.54;102145.19;4960721;29;20027;-88
2022/03/28 07:25:26;;;;;;;61.63;9.20;;;;;;;12.72;43.68;102139.78;4959123;29;20093;-89
2022/03/28 07:27:52;;;;;;;49.70;8.77;;;;;;;12.54;43.87;102147.28;4940907;29;20050;-89
2022/03/28 07:30:19;;;;;;;36.88;6.55;;;;;;;12.22;42.16;102112.56;4959980;29;20031;-88
2022/03/28 07:32:46;;;;;;;31.50;7.18;;;;;;;12.64;41.43;102141.25;4959569;29;20027;-91
2022/03/28 07:35:12;;;;;;;38.25;9.25;;;;;;;12.54;43.15;102124.81;4941958;29;20051;-89
2022/03/28 07:37:39;;;;;;;18.27;5.60;;;;;;;12.76;41.93;102135.94;4960977;29;20041;-88
2022/03/28 07:40:08;;;;;;;28.67;4.93;;;;;;;12.51;41.28;102115.09;4959691;28;20027;-88
2022/03/28 07:42:34;;;;;;;37.08;5.65;;;;;;;12.48;41.12;102119.81;4961659;29;20041;-88
2022/03/28 07:45:01;;;;;;;21.85;6.05;;;;;;;12.42;40.93;102120.22;4927914;29;20066;-89
2022/03/28 07:47:27;;;;;;;58.55;5.20;;;;;;;12.66;38.15;102156.38;4961462;29;20034;-90
2022/03/28 07:49:54;;;;;;;34.55;5.68;;;;;;;12.61;39.77;102150.44;4962859;29;20084;-90
2022/03/28 07:52:20;;;;;;;30.45;5.40;;;;;;;12.49;40.49;102116.16;4960117;29;20027;-89
2022/03/28 07:54:48;;;;;;;40.60;7.20;;;;;;;12.68;42.05;102135.56;4944849;29;20452;-89
2022/03/28 07:57:16;;;;;;;22.10;5.60;;;;;;;12.65;41.67;102149.28;4966282;29;20035;-89
2022/03/28 07:59:44;;;;;;;25.73;5.20;;;;;;;12.64;42.00;102152.06;4930395;29;20053;-88
2022/03/28 08:02:10;;;;;;;27.20;5.82;;;;;;;12.48;42.26;102146.78;4960014;29;20023;-88
2022/03/28 08:04:36;;;;;;;36.03;5.80;;;;;;;12.11;43.57;102123.19;4959056;29;20085;-88
2022/03/28 08:07:08;;;;;;;16.83;5.60;;;;;;;11.89;43.60;102111.06;4942284;29;20098;-89
2022/03/28 08:09:35;;;;;;;40.33;5.40;;;;;;;11.94;44.97;102152.06;4941088;29;20502;-89
2022/03/28 08:12:02;;;;;;;27.25;5.07;;;;;;;12.03;44.01;102150.63;4958561;29;20027;-89
2022/03/28 08:14:29;;;;;;;34.00;5.78;;;;;;;11.94;44.21;102140.41;4940626;29;20031;-91
2022/03/28 08:16:56;;;;;;;60.58;7.68;;;;;;;11.85;44.47;102103.25;4964073;29;20030;-87
2022/03/28 08:19:22;;;;;;;34.67;4.80;;;;;;;12.29;43.86;102143.59;4955899;29;20405;-90
2022/03/28 08:21:47;;;;;;;34.50;7.20;;;;;;;12.22;43.89;102118.81;4958903;29;20034;-88
2022/03/28 08:24:13;;;;;;;45.58;6.70;;;;;;;12.22;42.16;102090.97;4958016;29;20042;-91
2022/03/28 08:26:38;;;;;;;23.98;6.47;;;;;;;12.66;41.84;102094.31;4940642;29;20118;-89
2022/03/28 08:29:05;;;;;;;29.67;5.13;;;;;;;12.73;41.56;102090.22;4967431;29;20060;-87
2022/03/28 08:31:33;;;;;;;35.00;5.25;;;;;;;12.96;40.12;102116.56;4952086;29;20090;-88
2022/03/28 08:34:00;;;;;;;31.55;5.43;;;;;;;12.97;40.74;102123.69;4957352;29;20135;-88
2022/03/28 08:36:27;;;;;;;26.20;4.65;;;;;;;12.91;40.33;102096.22;4958099;29;20102;-90
2022/03/28 08:38:53;;;;;;;33.72;4.95;;;;;;;13.07;40.35;102116.69;4965588;29;20055;-88
2022/03/28 08:41:19;;;;;;;32.10;5.60;;;;;;;13.17;40.79;102105.28;4945544;29;20031;-91
2022/03/28 08:43:46;;;;;;;35.45;4.93;;;;;;;13.05;40.55;102056.53;4947968;29;20095;-89
2022/03/28 08:46:15;;;;;;;28.25;5.63;;;;;;;12.92;40.59;102028.63;4952000;29;20031;-91
2022/03/28 08:48:42;;;;;;;27.83;3.80;;;;;;;13.15;41.77;102081.06;4958690;29;20612;-91
2022/03/28 08:51:09;;;;;;;17.67;3.75;;;;;;;13.28;39.72;102089.19;4940342;28;20031;-90
2022/03/28 08:53:35;;;;;;;17.38;4.20;;;;;;;13.20;39.21;102059.16;4939051;29;20023;-89
2022/03/28 08:56:01;;;;;;;28.80;5.40;;;;;;;13.05;40.65;102048.41;4939930;29;20059;-89
2022/03/28 08:58:27;;;;;;;35.72;6.88;;;;;;;13.00;39.60;102037.03;4957528;29;20078;-90
2022/03/28 09:00:54;;;;;;;38.35;4.90;;;;;;;13.38;40.32;102091.16;4956690;29;20046;-88
2022/03/28 09:03:21;;;;;;;27.30;5.28;;;;;;;13.48;38.50;102080.56;4958423;29;20054;-88
2022/03/28 09:05:51;;;;;;;34.22;4.53;;;;;;;13.20;38.83;101999.72;4940460;29;20031;-89
2022/03/28 09:08:24;;;;;;;22.15;4.47;;;;;;;13.52;39.50;102065.84;4940629;29;20035;-89
2022/03/28 09:10:51;;;;;;;23.42;5.22;;;;;;;13.73;39.88;102069.72;4939376;29;20019;-89
2022/03/28 09:13:56;;;;;;;21.48;4.15;;;;;;;13.77;39.83;102075.78;4924125;29;20035;-89
2022/03/28 09:16:21;;;;;;;76.72;8.60;;;;;;;13.46;40.61;102074.38;4902872;29;20145;-90
2022/03/28 09:19:14;;;;;;;12.93;4.40;;;;;;;13.55;39.53;102065.63;4917634;29;20108;-91
2022/03/28 09:22:09;;;;;;;34.42;4.22;;;;;;;13.50;39.12;102067.81;4900981;29;20040;-92
2022/03/28 09:24:54;;;;;;;10.90;3.70;;;;;;;13.44;39.21;102068.25;4933748;28;20067;-91
2022/03/28 09:27:44;;;;;;;21.90;4.60;;;;;;;13.25;40.07;102071.38;4946407;29;20058;-89
2022/03/28 09:30:16;;;;;;;26.02;4.80;;;;;;;13.21;38.13;102033.88;4946340;29;20031;-90
2022/03/28 09:32:54;;;;;;;22.27;3.72;;;;;;;13.20;38.53;102048.34;4961124;29;20031;-89
2022/03/28 09:35:24;;;;;;;39.60;4.60;;;;;;;13.38;37.11;102060.56;4926598;29;20047;-89
2022/03/28 09:38:08;;;;;;;23.90;4.10;;;;;;;13.58;36.46;102051.91;4956780;29;20024;-88
2022/03/28 09:40:52;;;;;;;22.52;2.92;;;;;;;13.67;34.83;102053.94;4956016;29;20035;-88
2022/03/28 09:43:23;;;;;;;24.23;3.47;;;;;;;13.44;33.59;102042.06;4955646;29;20091;-88
2022/03/28 09:45:59;;;;;;;41.40;4.20;;;;;;;13.56;36.04;102040.34;4939128;29;20054;-90
2022/03/28 09:48:27;;;;;;;33.10;4.28;;;;;;;13.35;35.92;102020.25;4945862;29;20031;-93
2022/03/28 09:50:59;;;;;;;21.83;5.22;;;;;;;13.22;36.93;102033.75;4924010;29;20051;-92
2022/03/28 09:53:37;;;;;;;37.72;3.78;;;;;;;13.20;36.80;102034.84;4939150;29;20027;-90
2022/03/28 09:56:06;;;;;;;21.00;4.65;;;;;;;13.28;37.07;102002.72;4956894;29;20043;-91
2022/03/28 09:58:45;;;;;;;24.35;5.03;;;;;;;13.21;36.19;102018.50;4957169;29;20047;-92
2022/03/28 10:01:35;;;;;;;36.22;9.73;;;;;;;13.34;36.24;102021.19;4940678;29;20031;-88
2022/03/28 10:04:11;;;;;;;26.95;5.40;;;;;;;13.48;36.63;102015.69;4937904;29;20023;-89
2022/03/28 10:06:38;;;;;;;24.45;4.47;;;;;;;13.38;36.19;101971.38;4974006;29;20031;-88
2022/03/28 10:09:05;;;;;;;23.83;4.15;;;;;;;13.58;34.04;102003.22;4977063;29;20121;-88
2022/03/28 10:11:31;;;;;;;27.08;4.40;;;;;;;13.86;34.30;102011.06;4975170;29;20108;-91
2022/03/28 10:13:58;;;;;;;67.28;6.72;;;;;;;13.63;35.38;101974.91;4980123;29;20035;-89
2022/03/28 10:16:25;;;;;;;19.55;4.55;;;;;;;13.88;34.03;102011.81;4964476;28;20035;-90
2022/03/28 10:18:50;;;;;;;37.67;3.75;;;;;;;13.62;34.41;101958.78;4914903;29;20041;-90
2022/03/28 10:21:29;;;;;;;45.83;5.10;;;;;;;13.78;36.81;102002.66;4942174;29;20114;-92
2022/03/28 10:23:56;;;;;;;23.65;3.80;;;;;;;13.57;35.42;101971.78;4961527;29;20111;-89
2022/03/28 10:26:32;;;;;;;31.17;3.88;;;;;;;13.78;35.58;101989.16;4944360;29;20126;-90
2022/03/28 10:29:12;;;;;;;16.50;3.78;;;;;;;13.85;36.89;101982.28;4960949;29;20134;-90
2022/03/28 10:31:56;;;;;;;31.77;5.82;;;;;;;14.17;36.11;101988.91;4946965;29;20039;-89
2022/03/28 10:34:56;;;;;;;23.27;3.80;;;;;;;14.32;37.13;101983.31;4959912;29;20023;-89
2022/03/28 10:37:35;;;;;;;105.43;14.40;;;;;;;14.40;37.19;101979.06;4948431;29;20030;-90
2022/03/28 10:40:26;;;;;;;29.35;3.58;;;;;;;14.60;36.92;101980.25;4971699;29;20051;-89
2022/03/28 10:43:14;;;;;;;25.38;4.03;;;;;;;14.64;36.23;101966.38;4949287;29;20019;-89
2022/03/28 10:45:50;;;;;;;26.30;3.45;;;;;;;14.79;36.78;101968.88;4944215;29;20031;-89
2022/03/28 10:48:17;;;;;;;25.50;3.03;;;;;;;14.29;35.69;101905.03;4959980;29;20055;-89
2022/03/28 10:50:49;;;;;;;26.95;3.35;;;;;;;14.51;35.66;101937.66;4945336;29;20035;-88
2022/03/28 10:53:29;;;;;;;19.87;3.77;;;;;;;14.42;34.59;101932.94;4964555;29;20051;-89
2022/03/28 10:56:13;;;;;;;25.00;3.88;;;;;;;14.63;36.00;101953.81;4959280;29;20034;-89
2022/03/28 10:59:12;;;;;;;26.23;3.85;;;;;;;14.78;36.34;101945.47;4925871;29;20039;-92
2022/03/28 11:01:41;;;;;;;29.98;4.38;;;;;;;14.91;36.80;101930.84;4960451;29;20027;-93
2022/03/28 11:04:12;;;;;;;34.58;4.15;;;;;;;14.88;36.73;101931.09;4942874;29;20042;-92
2022/03/28 11:06:52;;;;;;;27.97;3.93;;;;;;;14.76;36.63;101932.06;4959923;29;20094;-89
2022/03/28 11:09:55;;;;;;;25.63;3.70;;;;;;;14.68;36.80;101921.81;4943206;29;20038;-90
2022/03/28 11:12:30;;;;;;;17.60;3.67;;;;;;;14.55;36.53;101923.78;4963033;29;20110;-90
2022/03/28 11:15:16;;;;;;;29.23;4.45;;;;;;;14.59;35.47;101908.13;4939766;29;20497;-90
2022/03/28 11:18:02;;;;;;;23.10;3.25;;;;;;;14.27;36.48;101915.13;4957718;29;20043;-88
2022/03/28 11:20:44;;;;;;;33.47;4.97;;;;;;;14.00;34.68;101900.03;4957613;29;20045;-88
2022/03/28 11:23:11;;;;;;;22.27;3.55;;;;;;;13.50;37.59;101835.34;4940908;29;20117;-88